Time;durP1;ratioP1;P1;durP2;ratioP2;P2;SDS_P1;SDS_P2;PMS_P1;PMS_P2;Temp;Humidity;BMP_temperature;BMP_pressure;BME280_temperature;BME280_humidity;BME280_pressure;Samples;Min_cycle;Max_cycle;Signal;HPM_P1;HPM_P2
2023/07/18 00:01:15;;;;;;;9.82;3.75;;;;;;;;;;5073977;28;20019;-73
2023/07/18 00:03:41;;;;;;;9.88;3.65;;;;;;;;;;5074895;28;20020;-72
2023/07/18 00:06:08;;;;;;;12.60;3.80;;;;;;;;;;5074246;28;20039;-73
2023/07/18 00:08:34;;;;;;;10.20;3.45;;;;;;;;;;5075750;28;20020;-74
2023/07/18 00:11:00;;;;;;;11.15;3.25;;;;;;;;;;5074813;28;20444;-74
2023/07/18 00:13:26;;;;;;;18.75;4.10;;;;;;;;;;5073330;28;20032;-73
2023/07/18 00:15:52;;;;;;;12.90;3.72;;;;;;;;;;5073707;28;20032;-73
2023/07/18 00:18:21;;;;;;;8.35;3.58;;;;;;;;;;5073346;28;20033;-73
2023/07/18 00:20:47;;;;;;;9.18;3.65;;;;;;;;;;5073564;28;20016;-73
2023/07/18 00:23:13;;;;;;;11.07;3.72;;;;;;;;;;5073276;28;20354;-73
2023/07/18 00:25:39;;;;;;;14.00;4.57;;;;;;;;;;5073572;28;20056;-73
2023/07/18 00:28:05;;;;;;;14.63;4.60;;;;;;;;;;5073522;28;20563;-73
2023/07/18 00:30:31;;;;;;;10.50;3.30;;;;;;;;;;5073592;28;20508;-74
2023/07/18 00:32:57;;;;;;;13.98;4.03;;;;;;;;;;5073365;28;20032;-74
2023/07/18 00:35:23;;;;;;;11.63;3.67;;;;;;;;;;5072925;28;20430;-73
2023/07/18 00:37:50;;;;;;;12.88;4.10;;;;;;;;;;5073400;28;20036;-73
2023/07/18 00:40:16;;;;;;;11.95;4.10;;;;;;;;;;5073281;28;20504;-73
2023/07/18 00:42:43;;;;;;;9.98;3.92;;;;;;;;;;5072993;28;20031;-73
2023/07/18 00:45:09;;;;;;;16.13;4.78;;;;;;;;;;5073175;28;20543;-73
2023/07/18 00:47:42;;;;;;;15.77;3.95;;;;;;;;;;5073215;28;20043;-73
2023/07/18 00:50:08;;;;;;;13.80;4.28;;;;;;;;;;5073232;28;20053;-73
2023/07/18 00:52:40;;;;;;;16.13;5.82;;;;;;;;;;5072934;28;20021;-73
2023/07/18 00:55:07;;;;;;;14.98;4.60;;;;;;;;;;5073278;28;20077;-73
2023/07/18 00:57:34;;;;;;;16.83;5.57;;;;;;;;;;5073079;28;20021;-73
2023/07/18 01:00:00;;;;;;;16.30;5.45;;;;;;;;;;5073115;28;20032;-74
2023/07/18 01:02:26;;;;;;;17.55;5.35;;;;;;;;;;5072413;28;20025;-74
2023/07/18 01:04:52;;;;;;;17.85;5.68;;;;;;;;;;5072854;28;20020;-74
2023/07/18 01:07:20;;;;;;;15.35;4.55;;;;;;;;;;5072701;28;20489;-73
2023/07/18 01:09:47;;;;;;;14.13;4.78;;;;;;;;;;5073289;28;20024;-73
2023/07/18 01:12:13;;;;;;;14.93;5.03;;;;;;;;;;5074108;28;20032;-74
2023/07/18 01:14:40;;;;;;;12.55;4.70;;;;;;;;;;5072772;28;20486;-74
2023/07/18 01:17:08;;;;;;;12.70;5.35;;;;;;;;;;5071766;28;20506;-73
2023/07/18 01:19:35;;;;;;;19.33;6.28;;;;;;;;;;5072390;28;20111;-73
2023/07/18 01:22:01;;;;;;;15.30;5.22;;;;;;;;;;5071964;28;20017;-73
2023/07/18 01:24:27;;;;;;;14.15;4.88;;;;;;;;;;5072455;28;20116;-73
2023/07/18 01:26:54;;;;;;;11.77;4.40;;;;;;;;;;5072430;28;20052;-73
2023/07/18 01:29:20;;;;;;;17.75;5.43;;;;;;;;;;5072261;28;20025;-73
2023/07/18 01:31:48;;;;;;;14.73;5.05;;;;;;;;;;5071957;28;20037;-74
2023/07/18 01:34:14;;;;;;;15.77;5.40;;;;;;;;;;5072586;28;20048;-73
2023/07/18 01:36:40;;;;;;;18.92;6.57;;;;;;;;;;5072365;28;20082;-74
2023/07/18 01:39:08;;;;;;;16.27;5.85;;;;;;;;;;5072115;28;20029;-73
2023/07/18 01:41:34;;;;;;;20.08;6.15;;;;;;;;;;5072011;28;20070;-74
2023/07/18 01:44:00;;;;;;;17.00;6.28;;;;;;;;;;5071729;28;20521;-75
2023/07/18 01:46:26;;;;;;;17.25;6.85;;;;;;;;;;5071288;28;20036;-74
2023/07/18 01:48:52;;;;;;;20.63;7.97;;;;;;;;;;5071871;28;20367;-74
2023/07/18 01:51:18;;;;;;;17.55;7.10;;;;;;;;;;5072016;28;20036;-73
2023/07/18 01:53:44;;;;;;;27.23;8.52;;;;;;;;;;5071829;28;20070;-73
2023/07/18 01:56:10;;;;;;;26.35;8.25;;;;;;;;;;5071949;28;20440;-74
2023/07/18 01:58:36;;;;;;;24.58;8.40;;;;;;;;;;5071861;28;20028;-73
2023/07/18 02:01:03;;;;;;;24.30;9.32;;;;;;;;;;5071775;28;20508;-73
2023/07/18 02:03:29;;;;;;;20.95;8.60;;;;;;;;;;5071441;28;20020;-73
2023/07/18 02:05:55;;;;;;;23.48;8.38;;;;;;;;;;5071787;28;20055;-73
2023/07/18 02:08:21;;;;;;;22.98;9.23;;;;;;;;;;5071739;28;20020;-74
2023/07/18 02:10:47;;;;;;;26.38;9.00;;;;;;;;;;5071527;28;20025;-74
2023/07/18 02:13:13;;;;;;;19.95;9.15;;;;;;;;;;5071244;28;20390;-74
2023/07/18 02:15:39;;;;;;;20.38;9.48;;;;;;;;;;5071387;28;20031;-74
2023/07/18 02:18:05;;;;;;;29.77;8.77;;;;;;;;;;5071624;28;20478;-71
2023/07/18 02:20:31;;;;;;;22.77;9.70;;;;;;;;;;5071583;28;20020;-73
2023/07/18 02:23:00;;;;;;;24.08;10.00;;;;;;;;;;5071287;28;20466;-73
2023/07/18 02:25:26;;;;;;;19.25;8.63;;;;;;;;;;5071855;28;20185;-73
2023/07/18 02:27:52;;;;;;;21.95;10.15;;;;;;;;;;5071414;28;20016;-72
2023/07/18 02:30:18;;;;;;;25.73;9.85;;;;;;;;;;5069339;28;20044;-71
2023/07/18 02:32:45;;;;;;;25.42;10.30;;;;;;;;;;5069369;28;20021;-72
2023/07/18 02:35:15;;;;;;;21.00;9.88;;;;;;;;;;5071258;28;20025;-73
2023/07/18 02:37:41;;;;;;;23.98;10.85;;;;;;;;;;5071389;28;20108;-72
2023/07/18 02:40:10;;;;;;;22.33;10.15;;;;;;;;;;5071201;28;20104;-72
2023/07/18 02:42:36;;;;;;;25.08;10.85;;;;;;;;;;5070414;28;20063;-72
2023/07/18 02:45:02;;;;;;;22.83;10.65;;;;;;;;;;5071017;28;20028;-74
2023/07/18 02:47:28;;;;;;;27.48;10.75;;;;;;;;;;5071071;28;20020;-73
2023/07/18 02:49:54;;;;;;;26.55;12.15;;;;;;;;;;5071061;28;20035;-73
2023/07/18 02:52:20;;;;;;;24.73;11.20;;;;;;;;;;5070449;28;20040;-74
2023/07/18 02:54:47;;;;;;;22.58;11.02;;;;;;;;;;5071057;28;20017;-74
2023/07/18 02:57:13;;;;;;;24.73;10.57;;;;;;;;;;5072313;28;20490;-72
2023/07/18 02:59:39;;;;;;;33.35;11.95;;;;;;;;;;5074957;28;20029;-73
2023/07/18 03:02:05;;;;;;;30.90;13.02;;;;;;;;;;5074148;28;20512;-72
2023/07/18 03:04:31;;;;;;;27.15;11.27;;;;;;;;;;5074975;28;20047;-73
2023/07/18 03:06:57;;;;;;;28.45;12.05;;;;;;;;;;5075085;28;20471;-73
2023/07/18 03:09:23;;;;;;;29.23;11.90;;;;;;;;;;5074991;28;20036;-73
2023/07/18 03:11:50;;;;;;;30.08;11.93;;;;;;;;;;5074795;28;20028;-73
2023/07/18 03:14:16;;;;;;;28.50;11.65;;;;;;;;;;5074450;28;20056;-72
2023/07/18 03:16:42;;;;;;;23.90;11.52;;;;;;;;;;5074858;28;20032;-72
2023/07/18 03:19:10;;;;;;;25.88;11.85;;;;;;;;;;5074927;28;20062;-71
2023/07/18 03:21:36;;;;;;;24.50;10.73;;;;;;;;;;5074543;28;20024;-73
2023/07/18 03:24:02;;;;;;;28.05;11.70;;;;;;;;;;5073934;28;20021;-72
2023/07/18 03:26:28;;;;;;;24.63;11.20;;;;;;;;;;5074517;28;20027;-72
2023/07/18 03:28:57;;;;;;;24.42;11.73;;;;;;;;;;5074260;28;20067;-72
2023/07/18 03:31:23;;;;;;;27.75;11.98;;;;;;;;;;5074261;28;20077;-72
2023/07/18 03:33:49;;;;;;;30.98;12.80;;;;;;;;;;5073844;28;20072;-72
2023/07/18 03:36:15;;;;;;;36.33;12.57;;;;;;;;;;5074416;28;20101;-75
2023/07/18 03:38:41;;;;;;;35.20;12.70;;;;;;;;;;5074306;28;20467;-75
2023/07/18 03:41:07;;;;;;;30.20;12.73;;;;;;;;;;5077057;28;20012;-73
2023/07/18 03:43:33;;;;;;;32.28;12.57;;;;;;;;;;5075415;28;20047;-73
2023/07/18 03:46:00;;;;;;;27.75;12.13;;;;;;;;;;5073774;28;20389;-75
2023/07/18 03:48:26;;;;;;;25.42;12.50;;;;;;;;;;5073816;28;20124;-73
2023/07/18 03:50:53;;;;;;;31.80;12.50;;;;;;;;;;5074695;28;20135;-74
2023/07/18 03:53:19;;;;;;;32.42;12.20;;;;;;;;;;5074268;28;20107;-73
2023/07/18 03:55:45;;;;;;;28.83;12.52;;;;;;;;;;5074759;28;20025;-73
2023/07/18 03:58:11;;;;;;;29.17;13.07;;;;;;;;;;5074241;28;20031;-74
2023/07/18 04:00:37;;;;;;;29.00;12.77;;;;;;;;;;5074449;28;20028;-73
2023/07/18 04:03:03;;;;;;;27.77;12.05;;;;;;;;;;5073958;28;20024;-72
2023/07/18 04:05:29;;;;;;;38.60;12.10;;;;;;;;;;5074194;28;20432;-73
2023/07/18 04:07:55;;;;;;;29.23;11.98;;;;;;;;;;5074248;28;20056;-73
2023/07/18 04:10:21;;;;;;;30.58;11.90;;;;;;;;;;5073431;28;20048;-73
2023/07/18 04:12:47;;;;;;;29.40;12.00;;;;;;;;;;5072550;28;20545;-73
2023/07/18 04:15:14;;;;;;;28.17;11.90;;;;;;;;;;5072516;28;20086;-75
2023/07/18 04:17:40;;;;;;;32.15;13.27;;;;;;;;;;5072953;28;20017;-73
2023/07/18 04:20:06;;;;;;;28.55;12.00;;;;;;;;;;5072866;28;20028;-75
2023/07/18 04:22:32;;;;;;;28.48;12.48;;;;;;;;;;5071939;28;20396;-73
2023/07/18 04:24:59;;;;;;;28.42;11.60;;;;;;;;;;5072474;28;20020;-74
2023/07/18 04:27:27;;;;;;;31.75;11.93;;;;;;;;;;5072029;28;20024;-73
2023/07/18 04:29:53;;;;;;;40.78;11.45;;;;;;;;;;5072157;28;20099;-73
2023/07/18 04:32:19;;;;;;;27.35;11.43;;;;;;;;;;5071419;28;20028;-73
2023/07/18 04:34:47;;;;;;;29.20;12.43;;;;;;;;;;5072424;28;20059;-72
2023/07/18 04:37:13;;;;;;;32.95;12.30;;;;;;;;;;5072249;28;20571;-73
2023/07/18 04:39:39;;;;;;;29.58;11.60;;;;;;;;;;5071683;28;20021;-73
2023/07/18 04:42:06;;;;;;;24.05;10.23;;;;;;;;;;5071403;28;20036;-73
2023/07/18 04:44:33;;;;;;;27.83;10.88;;;;;;;;;;5071920;28;20017;-72
2023/07/18 04:46:59;;;;;;;29.50;11.20;;;;;;;;;;5071968;28;20351;-73
2023/07/18 04:49:25;;;;;;;27.05;10.65;;;;;;;;;;5073062;28;20040;-74
2023/07/18 04:51:51;;;;;;;23.80;10.63;;;;;;;;;;5072331;28;20056;-73
2023/07/18 04:54:18;;;;;;;36.38;11.90;;;;;;;;;;5072871;28;20063;-74
2023/07/18 04:56:44;;;;;;;30.52;11.95;;;;;;;;;;5072615;28;20028;-73
2023/07/18 04:59:10;;;;;;;35.95;13.00;;;;;;;;;;5072745;28;20366;-73
2023/07/18 05:01:36;;;;;;;25.77;11.40;;;;;;;;;;5072404;28;20021;-74
2023/07/18 05:04:03;;;;;;;27.35;10.25;;;;;;;;;;5072598;28;20070;-74
2023/07/18 05:06:29;;;;;;;26.13;11.25;;;;;;;;;;5072297;28;20021;-75
2023/07/18 05:08:55;;;;;;;31.67;11.15;;;;;;;;;;5073008;28;20040;-73
2023/07/18 05:11:21;;;;;;;27.65;10.40;;;;;;;;;;5072752;28;20032;-74
2023/07/18 05:13:47;;;;;;;22.08;10.77;;;;;;;;;;5073269;28;20470;-73
2023/07/18 05:16:13;;;;;;;32.88;10.77;;;;;;;;;;5074002;28;20021;-74
2023/07/18 05:18:39;;;;;;;24.52;9.48;;;;;;;;;;5073353;28;20557;-74
2023/07/18 05:21:05;;;;;;;31.40;11.13;;;;;;;;;;5073561;28;20025;-73
2023/07/18 05:23:31;;;;;;;27.02;10.68;;;;;;;;;;5071818;28;20074;-74
2023/07/18 05:25:57;;;;;;;29.42;10.75;;;;;;;;;;5072208;28;20129;-74
2023/07/18 05:28:23;;;;;;;30.38;10.98;;;;;;;;;;5072323;28;20032;-75
2023/07/18 05:30:49;;;;;;;30.92;9.77;;;;;;;;;;5073215;28;20433;-73
2023/07/18 05:33:15;;;;;;;27.63;10.98;;;;;;;;;;5071284;28;20067;-75
2023/07/18 05:35:41;;;;;;;27.65;10.07;;;;;;;;;;5072096;28;20028;-74
2023/07/18 05:38:07;;;;;;;23.77;10.30;;;;;;;;;;5075898;28;20114;-74
2023/07/18 05:40:33;;;;;;;36.83;10.07;;;;;;;;;;5072373;28;20064;-73
2023/07/18 05:42:59;;;;;;;33.67;10.23;;;;;;;;;;5072255;28;20075;-75
2023/07/18 05:45:25;;;;;;;26.85;9.52;;;;;;;;;;5073258;28;20065;-76
2023/07/18 05:47:51;;;;;;;28.80;9.50;;;;;;;;;;5072393;28;20462;-77
2023/07/18 05:50:18;;;;;;;29.27;8.55;;;;;;;;;;5074297;28;20109;-77
2023/07/18 05:52:44;;;;;;;25.20;9.57;;;;;;;;;;5074724;28;20021;-74
2023/07/18 05:55:10;;;;;;;27.52;9.82;;;;;;;;;;5072410;28;20382;-75
2023/07/18 05:57:37;;;;;;;25.10;9.13;;;;;;;;;;5072898;28;20114;-75
2023/07/18 06:00:06;;;;;;;26.55;9.48;;;;;;;;;;5079791;28;20505;-76
2023/07/18 06:02:34;;;;;;;26.40;9.23;;;;;;;;;;5081167;28;20024;-76
2023/07/18 06:05:00;;;;;;;34.08;9.07;;;;;;;;;;5071843;28;20028;-76
2023/07/18 06:07:26;;;;;;;29.08;9.25;;;;;;;;;;5068336;28;20044;-77
2023/07/18 06:09:52;;;;;;;23.52;8.52;;;;;;;;;;5072260;28;20020;-76
2023/07/18 06:12:18;;;;;;;29.45;8.80;;;;;;;;;;5077407;28;20067;-73
2023/07/18 06:14:44;;;;;;;23.70;9.48;;;;;;;;;;5073773;28;20025;-75
2023/07/18 06:17:10;;;;;;;25.40;8.35;;;;;;;;;;5070606;28;20113;-74
2023/07/18 06:19:36;;;;;;;22.83;9.10;;;;;;;;;;5073134;28;20056;-74
2023/07/18 06:22:02;;;;;;;21.45;7.78;;;;;;;;;;5072600;28;20035;-72
2023/07/18 06:24:28;;;;;;;28.05;8.93;;;;;;;;;;5074990;28;20023;-74
2023/07/18 06:26:54;;;;;;;31.95;8.93;;;;;;;;;;5071779;28;20639;-75
2023/07/18 06:29:20;;;;;;;25.15;8.25;;;;;;;;;;5071334;28;20017;-74
2023/07/18 06:31:47;;;;;;;26.33;8.63;;;;;;;;;;5070537;28;20025;-73
2023/07/18 06:34:13;;;;;;;25.27;7.80;;;;;;;;;;5071501;28;20478;-72
2023/07/18 06:36:39;;;;;;;26.25;7.55;;;;;;;;;;5071374;28;20504;-72
2023/07/18 06:39:08;;;;;;;23.38;7.47;;;;;;;;;;5069425;28;20028;-73
2023/07/18 06:41:34;;;;;;;28.50;8.13;;;;;;;;;;5071665;28;20024;-72
2023/07/18 06:44:00;;;;;;;23.50;7.22;;;;;;;;;;5084140;28;20023;-73
2023/07/18 06:46:26;;;;;;;26.13;8.02;;;;;;;;;;5092650;28;20047;-74
2023/07/18 06:48:52;;;;;;;24.60;7.47;;;;;;;;;;5091291;28;20466;-75
2023/07/18 06:51:18;;;;;;;20.88;7.47;;;;;;;;;;5091558;28;20039;-73
2023/07/18 06:53:44;;;;;;;22.98;7.78;;;;;;;;;;5091893;28;20060;-73
2023/07/18 06:56:10;;;;;;;21.50;7.90;;;;;;;;;;5092701;28;20103;-73
2023/07/18 06:58:36;;;;;;;30.38;8.85;;;;;;;;;;5092534;28;20035;-72
2023/07/18 07:01:02;;;;;;;22.42;8.00;;;;;;;;;;5092042;28;20017;-76
2023/07/18 07:03:28;;;;;;;22.40;8.77;;;;;;;;;;5093240;28;20450;-73
2023/07/18 07:05:54;;;;;;;28.48;8.95;;;;;;;;;;5091525;28;20036;-74
2023/07/18 07:08:22;;;;;;;20.83;8.30;;;;;;;;;;5091631;28;20028;-73
2023/07/18 07:10:48;;;;;;;23.85;8.25;;;;;;;;;;5091216;28;20028;-73
2023/07/18 07:13:14;;;;;;;27.13;8.23;;;;;;;;;;5091659;28;20092;-75
2023/07/18 07:15:40;;;;;;;29.85;8.82;;;;;;;;;;5092041;28;20032;-75
2023/07/18 07:18:06;;;;;;;25.95;7.65;;;;;;;;;;5091803;28;20035;-74
2023/07/18 07:20:32;;;;;;;26.35;7.75;;;;;;;;;;5091734;28;20016;-73
2023/07/18 07:22:59;;;;;;;24.73;8.10;;;;;;;;;;5091081;28;20105;-73
2023/07/18 07:25:29;;;;;;;27.92;7.78;;;;;;;;;;5091938;28;20070;-73
2023/07/18 07:27:56;;;;;;;27.75;7.82;;;;;;;;;;5097803;28;20028;-77
2023/07/18 07:30:22;;;;;;;26.05;8.27;;;;;;;;;;5091711;28;20031;-76
2023/07/18 07:32:53;;;;;;;24.15;7.60;;;;;;;;;;5093927;28;20024;-82
2023/07/18 07:35:20;;;;;;;26.63;7.60;;;;;;;;;;5094553;28;20104;-76
2023/07/18 07:37:50;;;;;;;22.75;6.25;;;;;;;;;;5092098;28;20032;-75
2023/07/18 07:40:17;;;;;;;25.50;7.72;;;;;;;;;;5092269;28;20077;-74
2023/07/18 07:42:44;;;;;;;25.23;7.20;;;;;;;;;;5090708;28;20067;-74
2023/07/18 07:45:10;;;;;;;21.50;6.20;;;;;;;;;;5093360;28;20055;-73
2023/07/18 07:47:37;;;;;;;27.85;7.20;;;;;;;;;;5094397;28;20401;-73
2023/07/18 07:50:03;;;;;;;18.67;4.88;;;;;;;;;;5094844;28;20024;-72
2023/07/18 07:52:29;;;;;;;24.15;6.55;;;;;;;;;;5094344;28;20043;-72
2023/07/18 07:54:55;;;;;;;22.25;5.75;;;;;;;;;;5094574;28;20439;-74
2023/07/18 07:57:21;;;;;;;24.25;6.30;;;;;;;;;;5094463;28;20032;-73
2023/07/18 07:59:48;;;;;;;26.58;6.18;;;;;;;;;;5092582;28;20024;-74
2023/07/18 08:02:14;;;;;;;25.50;5.82;;;;;;;;;;5072479;28;20054;-74
2023/07/18 08:04:41;;;;;;;17.92;5.43;;;;;;;;;;5074519;28;20028;-72
2023/07/18 08:07:08;;;;;;;19.73;5.38;;;;;;;;;;5074736;28;20032;-72
2023/07/18 08:09:34;;;;;;;20.30;4.82;;;;;;;;;;5074488;28;20024;-71
2023/07/18 08:12:00;;;;;;;18.30;5.15;;;;;;;;;;5073183;28;20440;-73
2023/07/18 08:14:26;;;;;;;19.63;4.78;;;;;;;;;;5073768;28;20082;-72
2023/07/18 08:16:53;;;;;;;16.40;4.70;;;;;;;;;;5073592;28;20521;-75
2023/07/18 08:19:19;;;;;;;16.33;4.15;;;;;;;;;;5073777;28;20052;-72
2023/07/18 08:21:44;;;;;;;18.67;4.68;;;;;;;;;;5072970;28;20035;-72
2023/07/18 08:24:10;;;;;;;14.65;4.13;;;;;;;;;;5073407;28;20020;-72
2023/07/18 08:26:36;;;;;;;17.65;4.82;;;;;;;;;;5073161;28;20153;-73
2023/07/18 08:29:02;;;;;;;11.63;4.53;;;;;;;;;;5073067;28;20112;-72
2023/07/18 08:31:29;;;;;;;16.30;4.75;;;;;;;;;;5073234;28;20039;-74
2023/07/18 08:33:55;;;;;;;19.77;4.97;;;;;;;;;;5072411;28;20093;-73
2023/07/18 08:36:21;;;;;;;12.10;3.97;;;;;;;;;;5073548;28;20103;-73
2023/07/18 08:38:51;;;;;;;17.83;4.60;;;;;;;;;;5073412;28;20381;-72
2023/07/18 08:41:19;;;;;;;12.80;3.88;;;;;;;;;;5073147;28;20021;-73
2023/07/18 08:43:46;;;;;;;18.33;4.18;;;;;;;;;;5072898;28;20497;-74
2023/07/18 08:46:16;;;;;;;12.68;3.75;;;;;;;;;;5073100;28;20496;-72
2023/07/18 08:48:45;;;;;;;17.67;4.22;;;;;;;;;;5073004;28;20024;-72
2023/07/18 08:51:12;;;;;;;14.13;3.80;;;;;;;;;;5072795;28;20111;-73
2023/07/18 08:53:39;;;;;;;13.27;3.70;;;;;;;;;;5072729;28;20095;-72
2023/07/18 08:56:05;;;;;;;14.60;3.80;;;;;;;;;;5072644;28;20104;-74
2023/07/18 08:58:31;;;;;;;16.98;3.88;;;;;;;;;;5072848;28;20032;-71
2023/07/18 09:00:58;;;;;;;11.50;3.80;;;;;;;;;;5072807;28;20082;-72
2023/07/18 09:03:24;;;;;;;10.48;3.58;;;;;;;;;;5072473;28;20482;-72
2023/07/18 09:05:51;;;;;;;20.65;3.72;;;;;;;;;;5072946;28;20539;-73
2023/07/18 09:08:17;;;;;;;9.25;3.03;;;;;;;;;;5072739;28;20029;-73
2023/07/18 09:10:44;;;;;;;11.38;2.65;;;;;;;;;;5072860;28;20025;-71
2023/07/18 09:13:10;;;;;;;10.25;2.30;;;;;;;;;;5072316;28;20497;-72
2023/07/18 09:15:37;;;;;;;11.65;2.95;;;;;;;;;;5072748;28;20032;-72
2023/07/18 09:18:04;;;;;;;16.20;3.33;;;;;;;;;;5072527;28;20471;-72
2023/07/18 09:20:30;;;;;;;18.80;5.55;;;;;;;;;;5072746;28;20462;-71
2023/07/18 09:22:57;;;;;;;7.20;2.75;;;;;;;;;;5072198;28;20020;-71
2023/07/18 09:25:24;;;;;;;8.48;2.42;;;;;;;;;;5072487;28;20417;-71
2023/07/18 09:27:51;;;;;;;10.02;2.50;;;;;;;;;;5072301;28;20111;-72
2023/07/18 09:30:30;;;;;;;9.70;2.60;;;;;;;;;;5072523;28;20146;-72
2023/07/18 09:32:56;;;;;;;11.55;3.00;;;;;;;;;;5071845;28;20074;-73
2023/07/18 09:35:22;;;;;;;12.15;2.80;;;;;;;;;;5073034;28;20025;-73
2023/07/18 09:37:48;;;;;;;11.98;2.90;;;;;;;;;;5072264;28;20502;-74
2023/07/18 09:40:15;;;;;;;9.10;2.30;;;;;;;;;;5072510;28;20052;-74
2023/07/18 09:42:48;;;;;;;7.88;2.33;;;;;;;;;;5071687;28;20029;-74
2023/07/18 09:45:15;;;;;;;6.35;2.40;;;;;;;;;;5072570;28;20020;-77
2023/07/18 09:47:41;;;;;;;7.50;2.22;;;;;;;;;;5072282;28;20016;-74
2023/07/18 09:50:14;;;;;;;12.60;2.58;;;;;;;;;;5072685;28;20039;-75
2023/07/18 09:52:41;;;;;;;9.30;2.33;;;;;;;;;;5071789;28;20035;-72
2023/07/18 09:55:09;;;;;;;11.13;2.17;;;;;;;;;;5072385;28;20021;-76
2023/07/18 09:57:40;;;;;;;10.18;2.35;;;;;;;;;;5072094;28;20056;-72
2023/07/18 10:00:16;;;;;;;6.15;2.20;;;;;;;;;;5071588;28;20037;-73
2023/07/18 10:02:43;;;;;;;6.30;2.00;;;;;;;;;;5071842;28;20500;-75
2023/07/18 10:05:10;;;;;;;6.90;2.20;;;;;;;;;;5072004;28;20017;-75
2023/07/18 10:07:36;;;;;;;12.88;3.08;;;;;;;;;;5071120;28;20032;-71
2023/07/18 10:10:03;;;;;;;8.50;2.85;;;;;;;;;;5072015;28;20540;-72
2023/07/18 10:12:34;;;;;;;7.10;1.90;;;;;;;;;;5071130;28;20032;-74
2023/07/18 10:15:03;;;;;;;8.75;2.17;;;;;;;;;;5072713;28;20531;-72
2023/07/18 10:17:31;;;;;;;8.70;1.90;;;;;;;;;;5071702;28;20032;-73
2023/07/18 10:19:58;;;;;;;13.60;2.10;;;;;;;;;;5072149;28;20067;-74
2023/07/18 10:22:30;;;;;;;8.20;2.13;;;;;;;;;;5072289;28;20028;-72
2023/07/18 10:25:00;;;;;;;5.22;1.70;;;;;;;;;;5071738;28;20198;-72
2023/07/18 10:27:43;;;;;;;9.18;2.03;;;;;;;;;;5071172;28;20367;-73
2023/07/18 10:30:09;;;;;;;6.75;2.35;;;;;;;;;;5071497;28;20051;-71
2023/07/18 10:32:36;;;;;;;7.38;2.00;;;;;;;;;;5069617;28;20040;-72
2023/07/18 10:35:06;;;;;;;5.30;1.67;;;;;;;;;;5071538;28;20150;-71
2023/07/18 10:37:33;;;;;;;5.10;1.63;;;;;;;;;;5072696;28;20035;-70
2023/07/18 10:40:04;;;;;;;5.00;1.67;;;;;;;;;;5071410;28;20029;-72
2023/07/18 10:42:32;;;;;;;7.55;2.00;;;;;;;;;;5070904;28;20027;-72
2023/07/18 10:45:00;;;;;;;5.75;1.85;;;;;;;;;;5071362;28;20108;-72
2023/07/18 10:47:27;;;;;;;9.60;2.90;;;;;;;;;;5071284;28;20032;-71
2023/07/18 10:49:53;;;;;;;6.13;1.88;;;;;;;;;;5070860;28;20075;-71
2023/07/18 10:52:20;;;;;;;4.35;1.60;;;;;;;;;;5070804;28;20024;-72
2023/07/18 10:54:46;;;;;;;6.85;1.90;;;;;;;;;;5071762;28;20063;-73
2023/07/18 10:57:15;;;;;;;5.05;1.65;;;;;;;;;;5071673;28;20031;-72
2023/07/18 10:59:47;;;;;;;5.85;1.92;;;;;;;;;;5071514;28;20082;-71
2023/07/18 11:02:13;;;;;;;5.97;1.70;;;;;;;;;;5071097;28;20108;-72
2023/07/18 11:04:39;;;;;;;7.28;1.70;;;;;;;;;;5071075;28;20027;-71
2023/07/18 11:07:05;;;;;;;7.10;1.88;;;;;;;;;;5071085;28;20435;-71
2023/07/18 11:09:32;;;;;;;4.80;1.80;;;;;;;;;;5070796;28;20107;-74
2023/07/18 11:11:58;;;;;;;7.50;1.85;;;;;;;;;;5070988;28;20051;-73
2023/07/18 11:14:28;;;;;;;5.85;1.58;;;;;;;;;;5071320;28;20028;-72
2023/07/18 11:16:54;;;;;;;8.45;2.22;;;;;;;;;;5071292;28;20025;-71
2023/07/18 11:19:21;;;;;;;5.00;1.58;;;;;;;;;;5074145;28;20459;-71
2023/07/18 11:21:47;;;;;;;8.35;2.15;;;;;;;;;;5074584;28;20025;-72
2023/07/18 11:24:13;;;;;;;11.40;2.42;;;;;;;;;;5075152;28;20021;-71
2023/07/18 11:26:39;;;;;;;6.22;2.33;;;;;;;;;;5074993;28;20028;-73
2023/07/18 11:29:05;;;;;;;7.75;1.70;;;;;;;;;;5074730;28;20066;-70
2023/07/18 11:31:32;;;;;;;9.15;1.90;;;;;;;;;;5074636;28;20020;-71
2023/07/18 11:33:59;;;;;;;10.10;1.98;;;;;;;;;;5074525;28;20490;-72
2023/07/18 11:36:30;;;;;;;5.72;1.55;;;;;;;;;;5074574;28;20021;-72
2023/07/18 11:38:58;;;;;;;7.30;1.63;;;;;;;;;;5074655;28;20505;-71
2023/07/18 11:41:36;;;;;;;3.15;1.35;;;;;;;;;;5075042;28;20025;-71
2023/07/18 11:44:05;;;;;;;4.93;1.33;;;;;;;;;;5074041;28;20068;-71
2023/07/18 11:46:36;;;;;;;7.18;1.65;;;;;;;;;;5074397;28;20036;-70
2023/07/18 11:49:02;;;;;;;7.78;2.00;;;;;;;;;;5074230;28;20024;-71
2023/07/18 11:51:28;;;;;;;12.85;1.92;;;;;;;;;;5074135;28;20028;-71
2023/07/18 11:53:54;;;;;;;6.35;1.58;;;;;;;;;;5074262;28;20351;-72
2023/07/18 11:56:21;;;;;;;5.13;1.42;;;;;;;;;;5074509;28;20108;-72
2023/07/18 11:58:47;;;;;;;9.93;2.13;;;;;;;;;;5074454;28;20087;-76
2023/07/18 12:01:13;;;;;;;7.07;2.08;;;;;;;;;;5074065;28;20016;-75
2023/07/18 12:03:40;;;;;;;9.02;2.30;;;;;;;;;;5073701;28;20028;-74
2023/07/18 12:06:06;;;;;;;5.68;2.63;;;;;;;;;;5074029;28;20321;-73
2023/07/18 12:08:32;;;;;;;5.78;2.15;;;;;;;;;;5073663;28;20179;-74
2023/07/18 12:10:58;;;;;;;11.48;2.95;;;;;;;;;;5074215;28;20500;-72
2023/07/18 12:13:25;;;;;;;6.82;2.00;;;;;;;;;;5073127;28;20028;-75
2023/07/18 12:15:51;;;;;;;8.90;2.67;;;;;;;;;;5073779;28;20021;-72
2023/07/18 12:18:18;;;;;;;5.53;1.80;;;;;;;;;;5074129;28;20032;-73
2023/07/18 12:20:44;;;;;;;7.22;1.98;;;;;;;;;;5075303;28;20017;-71
2023/07/18 12:23:10;;;;;;;8.48;1.88;;;;;;;;;;5073869;28;20069;-70
2023/07/18 12:25:36;;;;;;;9.07;2.25;;;;;;;;;;5073868;28;20108;-71
2023/07/18 12:28:03;;;;;;;11.23;2.83;;;;;;;;;;5073507;28;20378;-74
2023/07/18 12:30:30;;;;;;;7.55;2.40;;;;;;;;;;5072793;28;20040;-71
2023/07/18 12:32:57;;;;;;;11.15;2.30;;;;;;;;;;5073106;28;20024;-72
2023/07/18 12:35:23;;;;;;;5.90;1.85;;;;;;;;;;5073367;28;20059;-73
2023/07/18 12:37:49;;;;;;;7.50;1.85;;;;;;;;;;5073094;28;20378;-73
2023/07/18 12:40:17;;;;;;;9.70;1.73;;;;;;;;;;5073973;28;20029;-72
2023/07/18 12:42:43;;;;;;;8.52;2.63;;;;;;;;;;5073322;28;20048;-73
2023/07/18 12:45:09;;;;;;;7.47;2.75;;;;;;;;;;5073560;28;20069;-72
2023/07/18 12:47:35;;;;;;;6.70;2.17;;;;;;;;;;5074026;28;20042;-72
2023/07/18 12:50:01;;;;;;;8.27;2.05;;;;;;;;;;5073392;28;20028;-73
2023/07/18 12:52:27;;;;;;;6.22;1.55;;;;;;;;;;5072885;28;20179;-73
2023/07/18 12:54:53;;;;;;;9.23;2.00;;;;;;;;;;5080654;28;20111;-73
2023/07/18 12:57:19;;;;;;;9.50;2.78;;;;;;;;;;5074710;28;20313;-73
2023/07/18 12:59:45;;;;;;;10.45;2.00;;;;;;;;;;5073060;28;20025;-72
2023/07/18 13:02:13;;;;;;;6.35;2.13;;;;;;;;;;5072239;28;20477;-71
2023/07/18 13:04:39;;;;;;;9.38;2.15;;;;;;;;;;5081706;28;20426;-72
2023/07/18 13:07:05;;;;;;;9.32;1.63;;;;;;;;;;5073087;28;20031;-72
2023/07/18 13:09:32;;;;;;;4.68;1.35;;;;;;;;;;5072470;28;20031;-71
2023/07/18 13:12:01;;;;;;;9.32;2.88;;;;;;;;;;5078818;28;20037;-72
2023/07/18 13:14:27;;;;;;;7.95;1.60;;;;;;;;;;5072176;28;20497;-73
2023/07/18 13:16:53;;;;;;;5.85;1.52;;;;;;;;;;5073335;28;20032;-72
2023/07/18 13:19:19;;;;;;;4.55;1.40;;;;;;;;;;5073783;28;20028;-73
2023/07/18 13:21:45;;;;;;;5.07;1.50;;;;;;;;;;5077165;28;20040;-71
2023/07/18 13:24:11;;;;;;;8.23;1.50;;;;;;;;;;5072433;28;20113;-71
2023/07/18 13:26:37;;;;;;;6.10;1.40;;;;;;;;;;5072180;28;20020;-71
2023/07/18 13:29:04;;;;;;;5.10;2.65;;;;;;;;;;5073889;28;20032;-72
2023/07/18 13:31:30;;;;;;;6.88;1.75;;;;;;;;;;5071844;28;20033;-72
2023/07/18 13:33:56;;;;;;;9.13;2.83;;;;;;;;;;5071139;28;20452;-70
2023/07/18 13:36:22;;;;;;;4.90;1.65;;;;;;;;;;5073757;28;20032;-72
2023/07/18 13:38:48;;;;;;;8.02;1.92;;;;;;;;;;5079410;28;20056;-72
2023/07/18 13:41:14;;;;;;;11.63;4.22;;;;;;;;;;5071696;28;20060;-73
2023/07/18 13:43:42;;;;;;;6.03;2.00;;;;;;;;;;5074910;28;20029;-71
2023/07/18 13:46:09;;;;;;;9.15;2.50;;;;;;;;;;5067067;28;20306;-76
2023/07/18 13:48:35;;;;;;;5.70;2.10;;;;;;;;;;5072653;28;20029;-75
2023/07/18 13:51:01;;;;;;;8.27;1.98;;;;;;;;;;5072811;28;20064;-72
2023/07/18 13:53:27;;;;;;;8.90;1.83;;;;;;;;;;5074137;28;20028;-73
2023/07/18 13:55:54;;;;;;;4.32;1.73;;;;;;;;;;5071507;28;20077;-72
2023/07/18 13:58:20;;;;;;;2.90;1.10;;;;;;;;;;5069712;28;20032;-74
2023/07/18 14:00:46;;;;;;;4.65;1.25;;;;;;;;;;5069127;28;20715;-75
2023/07/18 14:03:12;;;;;;;5.57;1.42;;;;;;;;;;5077513;28;20017;-75
2023/07/18 14:05:38;;;;;;;4.60;1.60;;;;;;;;;;5077890;28;20031;-74
2023/07/18 14:08:04;;;;;;;4.45;1.50;;;;;;;;;;5062123;28;20058;-72
2023/07/18 14:10:30;;;;;;;5.43;1.52;;;;;;;;;;5057520;28;20025;-74
2023/07/18 14:12:56;;;;;;;6.03;1.30;;;;;;;;;;5056687;28;20037;-76
2023/07/18 14:15:22;;;;;;;3.40;1.23;;;;;;;;;;5053257;28;20075;-75
2023/07/18 14:17:49;;;;;;;6.95;1.60;;;;;;;;;;5055121;28;20044;-75
2023/07/18 14:20:15;;;;;;;8.73;1.70;;;;;;;;;;5062250;28;20020;-73
2023/07/18 14:22:42;;;;;;;3.03;1.33;;;;;;;;;;5070837;28;20086;-73
2023/07/18 14:25:08;;;;;;;4.85;1.90;;;;;;;;;;5071618;28;20095;-71
2023/07/18 14:27:34;;;;;;;4.25;1.40;;;;;;;;;;5072346;28;20109;-72